Airfield :
LOGIN :

Register | Disclaimer

   EN    FR    IT 

 










Legend :    VFR   Marginal VFR   IFR   Intensive IFR   Very Intensive IFR
Visi :
Ceiling :
>= 8 km
>= 3000ft
5 to 8 km
1000 to 3000 ft
1500m to 5 km
500 to 1000 ft
800 to 1500m
200 to 500 ft
< 800m
< 200 ft
Symbols :   Thunderstorms  Fog  Heavy snow  Heavy precipitations  Wind > 20 kt
SIGMETs :     Misc.  Thunderstorms  Icing  Turbulence  Mountain Waves  Volcanic Ashes






- Airport Elevation : -11 ft
- IATA code : AMS


EHAM - Amsterdam Schiphol

CURRENT METAR :
  • 021055Z 18003KT 7000 NSC 01/M00 Q1013 BECMG 8000

EXPIRED METARs :
  • 021025Z 20004KT 170V230 7000 NSC M00/M01 Q1013 BECMG 8000
  • 020955Z 21004KT 7000 NSC M00/M01 Q1013 BECMG 8000
  • 020925Z 17003KT 8000 NSC M01/M02 Q1013 NOSIG
  • 020855Z 17004KT 8000 NSC M02/M03 Q1013 NOSIG
  • 020825Z 16003KT 7000 NSC M03/M03 Q1013 NOSIG
  • 020755Z 15003KT 8000 NSC M04/M04 Q1013 NOSIG
  • 020725Z 17003KT 130V200 8000 NSC M05/M05 Q1012 NOSIG
  • 020655Z 21004KT 9000 NSC M03/M04 Q1012 NOSIG
  • 020625Z 20003KT 9000 NSC M04/M05 Q1011 TEMPO 7000

TAF TAF EHAM
Valid from the 02 at 06:00 until the 03 at 12:00 UTC


020514Z 0206/0312 20005KT 5000 BR MIFG NSC
PROB30
TEMPO 0206/0209 0800 BCFG FZFG
BECMG 0208/0211 CAVOK
PROB30
TEMPO 0215/0303 22010KT 3000 SHRA SHRASN SCT020CB BKN030
BECMG 0220/0223 4000 BR BKN007
PROB30 0300/0306 1200 SCT002 BKN003
BECMG 0305/0308 17010KT CAVOK



MET'MAP, your aeronautical weather chart ! - Copyright ORBIFLY December 2007 - Disclaimer

ORBIFLY MET'MAP TEAM :

Programming & Development : Alexandra Zaïnal
Original concept : Baudouin d'Aumeries
Technical & hardware support : Manuel Goepfert
Assistance : Marc-Olivier Méhu




SOURCES & CREDITS :

   NOAA